createdAt,value
2023-03-21T09:32:57.813Z,15.27
2023-03-21T09:33:08.819Z,15.35
2023-03-21T09:33:19.823Z,15.33
2023-03-21T09:33:29.070Z,15.35
2023-03-21T09:33:39.201Z,15.33
2023-03-21T09:33:49.404Z,15.35
2023-03-21T09:33:59.507Z,15.42
2023-03-21T09:34:09.564Z,15.46
2023-03-21T09:34:19.726Z,15.52
2023-03-21T09:34:29.851Z,15.59
2023-03-21T09:34:40.737Z,15.61
2023-03-21T09:34:50.170Z,15.63
2023-03-21T09:35:00.227Z,15.64
2023-03-21T09:35:10.324Z,15.72
2023-03-21T09:35:20.463Z,15.82
2023-03-21T09:35:30.572Z,15.88
2023-03-21T09:35:40.942Z,15.92
2023-03-21T09:35:52.081Z,15.94
2023-03-21T09:36:00.903Z,16.00
2023-03-21T09:36:10.980Z,16.04
2023-03-21T09:36:21.181Z,16.12
2023-03-21T09:36:31.266Z,16.18
2023-03-21T09:36:41.364Z,16.26
2023-03-21T09:36:51.448Z,16.31
2023-03-21T09:37:01.727Z,16.37
2023-03-21T09:37:11.761Z,16.41
2023-03-21T09:37:21.811Z,16.50
2023-03-21T09:37:32.005Z,16.50
2023-03-21T09:37:42.162Z,16.53
2023-03-21T09:37:52.325Z,16.59
2023-03-21T09:38:02.371Z,16.63
2023-03-21T09:38:12.502Z,16.67
2023-03-21T09:38:22.524Z,16.73
2023-03-21T09:38:32.743Z,16.75
2023-03-21T09:38:42.835Z,16.83
2023-03-21T09:38:53.081Z,16.86
2023-03-21T09:39:02.986Z,16.90
2023-03-21T09:39:13.237Z,16.95
2023-03-21T09:39:23.304Z,16.98
2023-03-21T09:39:33.483Z,17.04
2023-03-21T09:39:43.602Z,17.11
2023-03-21T09:39:53.687Z,17.23
2023-03-21T09:40:03.713Z,17.28
2023-03-21T09:40:13.889Z,17.35
2023-03-21T09:40:23.996Z,17.41
2023-03-21T09:40:34.143Z,17.48
2023-03-21T09:40:44.295Z,17.54
2023-03-21T09:40:54.643Z,17.69
2023-03-21T09:41:04.518Z,17.76
2023-03-21T09:41:14.720Z,17.84
2023-03-21T09:41:24.804Z,17.84
2023-03-21T09:41:34.807Z,17.84
2023-03-21T09:41:44.955Z,17.91
2023-03-21T09:41:55.099Z,18.03
2023-03-21T09:42:05.123Z,18.10
2023-03-21T09:42:15.902Z,18.19
2023-03-21T09:42:25.465Z,18.21
2023-03-21T09:42:35.563Z,18.24
2023-03-21T09:42:45.801Z,18.25
2023-03-21T09:42:55.874Z,18.33
2023-03-21T09:43:06.202Z,18.29
2023-03-21T09:43:16.093Z,18.33
2023-03-21T09:43:26.076Z,18.36
2023-03-21T09:43:36.279Z,18.39
2023-03-21T09:43:46.549Z,18.42
2023-03-21T09:43:56.551Z,18.40
2023-03-21T09:44:06.680Z,18.40
2023-03-21T09:44:16.805Z,18.36
2023-03-21T09:44:26.874Z,18.36
2023-03-21T09:44:37.114Z,18.28
2023-03-21T09:44:47.180Z,18.28
2023-03-21T09:44:57.461Z,18.27
2023-03-21T09:45:07.573Z,18.27
2023-03-21T09:45:17.623Z,18.29
2023-03-21T09:45:27.844Z,18.36
2023-03-21T09:45:38.175Z,18.37
2023-03-21T09:45:48.018Z,18.40
2023-03-21T09:45:58.254Z,18.39
2023-03-21T09:46:08.235Z,18.40
2023-03-21T09:46:18.402Z,18.36
2023-03-21T09:46:28.505Z,18.36
2023-03-21T09:46:38.990Z,18.36
2023-03-21T09:46:48.790Z,18.36
2023-03-21T09:46:59.022Z,18.36
2023-03-21T09:47:09.093Z,18.39
2023-03-21T09:47:19.175Z,18.40
2023-03-21T09:47:29.193Z,18.42
2023-03-21T09:47:39.414Z,18.43
2023-03-21T09:47:49.659Z,18.42
2023-03-21T09:47:59.638Z,18.47
2023-03-21T09:48:09.785Z,18.52
2023-03-21T09:48:19.860Z,18.65
2023-03-21T09:48:30.181Z,18.76
2023-03-21T09:48:54.235Z,18.87
2023-03-21T09:49:07.639Z,18.94
2023-03-21T09:49:13.062Z,19.02
2023-03-21T09:49:23.222Z,19.11
2023-03-21T09:49:33.452Z,19.23
2023-03-21T09:49:43.885Z,19.25
2023-03-21T09:49:56.844Z,19.31
2023-03-21T09:50:14.433Z,19.32
2023-03-21T09:50:20.387Z,19.33
2023-03-21T09:50:26.013Z,19.39
2023-03-21T09:50:36.121Z,19.46
2023-03-21T09:50:46.134Z,19.53
2023-03-21T09:50:56.456Z,19.58
2023-03-21T09:51:06.489Z,19.63
2023-03-21T09:51:16.825Z,19.70
2023-03-21T09:51:26.734Z,19.75
2023-03-21T09:51:36.961Z,19.78
2023-03-21T09:51:47.048Z,19.86
2023-03-21T09:51:57.102Z,19.90
2023-03-21T09:52:07.235Z,19.90
2023-03-21T09:52:17.332Z,19.93
2023-03-21T09:52:28.158Z,19.90
2023-03-21T09:52:37.700Z,19.93
2023-03-21T09:52:47.695Z,19.91
2023-03-21T09:52:57.879Z,19.91
2023-03-21T09:53:08.050Z,19.91
2023-03-21T09:53:18.191Z,19.94
2023-03-21T09:53:28.224Z,19.91
2023-03-21T09:53:38.316Z,19.91
2023-03-21T09:53:48.430Z,19.88
2023-03-21T09:53:58.533Z,19.91
2023-03-21T09:54:08.631Z,19.86
2023-03-21T09:54:18.859Z,19.84
2023-03-21T09:54:28.949Z,19.83
2023-03-21T09:54:39.063Z,19.79
2023-03-21T09:54:49.128Z,19.76
2023-03-21T09:54:59.255Z,19.79
2023-03-21T09:55:09.618Z,19.72
2023-03-21T09:55:19.855Z,19.70
2023-03-21T09:55:29.489Z,19.69
2023-03-21T09:55:40.620Z,19.61
2023-03-21T09:55:49.886Z,19.54
2023-03-21T09:56:00.003Z,19.51
2023-03-21T09:56:10.042Z,19.47
2023-03-21T09:56:20.188Z,19.40
2023-03-21T09:56:30.273Z,19.38
2023-03-21T09:56:40.580Z,19.38
2023-03-21T09:56:51.238Z,19.33
2023-03-21T09:57:01.621Z,19.24
2023-03-21T09:57:10.887Z,19.18
2023-03-21T09:57:21.050Z,19.13
2023-03-21T09:57:31.198Z,19.11
2023-03-21T09:57:41.332Z,19.08
2023-03-21T09:57:51.397Z,19.06
2023-03-21T09:58:01.608Z,19.02
2023-03-21T09:58:12.756Z,19.06
2023-03-21T09:58:21.852Z,19.11
2023-03-21T09:58:32.002Z,19.17
2023-03-21T09:58:42.086Z,19.25
2023-03-21T09:58:52.401Z,19.29
2023-03-21T09:59:02.391Z,19.33
2023-03-21T09:59:12.471Z,19.28
2023-03-21T09:59:22.748Z,19.29
2023-03-21T09:59:33.800Z,19.35
2023-03-21T09:59:42.833Z,19.43
2023-03-21T09:59:53.429Z,19.46
2023-03-21T10:00:03.045Z,19.42
2023-03-21T10:00:13.297Z,19.28
2023-03-21T10:00:30.633Z,19.31
2023-03-21T10:00:36.074Z,19.25
2023-03-21T10:00:46.351Z,19.31
2023-03-21T10:00:56.353Z,19.38
2023-03-21T10:01:06.409Z,19.50
2023-03-21T10:01:16.556Z,19.48
2023-03-21T10:01:26.683Z,19.36
2023-03-21T10:01:36.795Z,19.40
2023-03-21T10:01:47.003Z,19.46
2023-03-21T10:01:57.105Z,19.50
2023-03-21T10:02:07.218Z,19.51
2023-03-21T10:02:17.227Z,19.43
2023-03-21T10:02:27.411Z,19.38
2023-03-21T10:02:37.576Z,19.35
2023-03-21T10:02:47.853Z,19.23
2023-03-21T10:02:57.896Z,19.08
2023-03-21T10:03:07.919Z,18.87
2023-03-21T10:03:18.032Z,18.65
2023-03-21T10:03:28.128Z,18.57
2023-03-21T10:03:38.164Z,18.43
2023-03-21T10:03:48.289Z,18.28
2023-03-21T10:03:58.595Z,18.12
2023-03-21T10:04:08.588Z,17.99
2023-03-21T10:04:18.737Z,17.85
2023-03-21T10:04:28.758Z,17.74
2023-03-21T10:04:38.914Z,17.64
2023-03-21T10:04:49.142Z,17.62
2023-03-21T10:04:59.238Z,17.59
2023-03-21T10:05:09.413Z,17.59
2023-03-21T10:05:19.528Z,17.59
2023-03-21T10:05:29.634Z,17.51
2023-03-21T10:05:40.013Z,17.47
2023-03-21T10:05:49.829Z,17.44
2023-03-21T10:05:59.963Z,17.43
2023-03-21T10:06:09.993Z,17.47
2023-03-21T10:06:20.201Z,17.44
2023-03-21T10:06:30.288Z,17.46
2023-03-21T10:06:40.683Z,17.46
2023-03-21T10:06:50.418Z,17.47
2023-03-21T10:07:00.554Z,17.43
2023-03-21T10:07:10.705Z,17.44
2023-03-21T10:07:20.875Z,17.35
2023-03-21T10:07:30.834Z,17.36
2023-03-21T10:07:41.016Z,17.29
2023-03-21T10:07:51.175Z,17.29
2023-03-21T10:08:01.277Z,17.25
2023-03-21T10:08:11.390Z,17.23
2023-03-21T10:08:21.854Z,17.18
2023-03-21T10:08:31.723Z,17.11
2023-03-21T10:08:41.835Z,17.03
2023-03-21T10:08:52.020Z,16.95
2023-03-21T10:09:02.192Z,16.88
2023-03-21T10:09:12.130Z,16.78
2023-03-21T10:09:22.418Z,16.73
2023-03-21T10:09:32.478Z,16.67
2023-03-21T10:09:42.720Z,16.63
2023-03-21T10:09:52.657Z,16.55
2023-03-21T10:10:02.787Z,16.50
2023-03-21T10:10:12.920Z,16.44
2023-03-21T10:10:23.085Z,16.41
2023-03-21T10:10:33.095Z,16.42
2023-03-21T10:10:43.396Z,16.44
2023-03-21T10:10:53.512Z,16.41
2023-03-21T10:11:03.603Z,16.38
2023-03-21T10:11:13.597Z,16.37
2023-03-21T10:11:23.788Z,16.34
2023-03-21T10:11:33.978Z,16.35
2023-03-21T10:11:44.255Z,16.30
2023-03-21T10:11:54.133Z,16.31
2023-03-21T10:12:04.260Z,16.26
2023-03-21T10:12:14.462Z,16.22
2023-03-21T10:12:24.520Z,16.15
2023-03-21T10:12:34.662Z,16.15
2023-03-21T10:12:44.812Z,16.14
2023-03-21T10:12:55.027Z,16.16
2023-03-21T10:13:05.051Z,16.20
2023-03-21T10:13:15.245Z,16.31
2023-03-21T10:13:25.415Z,16.35
2023-03-21T10:13:35.448Z,16.41
2023-03-21T10:13:45.525Z,16.42
2023-03-21T10:13:55.721Z,16.49
2023-03-21T10:14:05.682Z,16.55
2023-03-21T10:14:15.811Z,16.65
2023-03-21T10:14:25.933Z,16.70
2023-03-21T10:14:36.222Z,16.77
2023-03-21T10:14:46.226Z,16.81
2023-03-21T10:14:57.907Z,16.83
2023-03-21T10:15:06.450Z,16.86
2023-03-21T10:15:16.489Z,16.92
2023-03-21T10:15:26.596Z,16.96
2023-03-21T10:15:37.078Z,16.99
2023-03-21T10:15:47.809Z,17.04
2023-03-21T10:15:56.991Z,17.13
2023-03-21T10:16:07.754Z,17.18
2023-03-21T10:16:17.266Z,17.23
2023-03-21T10:16:27.374Z,17.32
2023-03-21T10:16:37.492Z,17.38
2023-03-21T10:16:47.725Z,17.46
2023-03-21T10:16:57.676Z,17.50
2023-03-21T10:17:07.864Z,17.55
2023-03-21T10:17:17.826Z,17.59
2023-03-21T10:17:27.936Z,17.66
2023-03-21T10:17:38.154Z,17.70
2023-03-21T10:17:48.292Z,17.74
2023-03-21T10:17:59.246Z,17.74
2023-03-21T10:18:08.511Z,17.79
2023-03-21T10:18:18.684Z,17.85
2023-03-21T10:18:28.744Z,17.85
2023-03-21T10:18:39.223Z,17.87
2023-03-21T10:18:49.058Z,17.79
2023-03-21T10:18:59.129Z,17.64
2023-03-21T10:19:09.268Z,17.48
2023-03-21T10:19:19.426Z,17.33
2023-03-21T10:19:29.576Z,17.17
2023-03-21T10:19:39.824Z,17.04
2023-03-21T10:19:49.873Z,16.86
2023-03-21T10:20:00.038Z,16.74
2023-03-21T10:20:11.796Z,16.63
2023-03-21T10:20:20.244Z,16.45
2023-03-21T10:20:30.350Z,16.38
2023-03-21T10:20:40.522Z,16.26
2023-03-21T10:20:50.567Z,16.14
2023-03-21T10:21:00.697Z,16.07
2023-03-21T10:21:10.889Z,15.96
2023-03-21T10:21:47.767Z,15.92
2023-03-21T10:22:04.303Z,15.86
2023-03-21T10:22:09.871Z,15.81
2023-03-21T10:22:20.103Z,15.81
2023-03-21T10:22:30.161Z,15.70
2023-03-21T10:22:40.196Z,15.61
2023-03-21T10:22:50.403Z,15.57
2023-03-21T10:23:00.439Z,15.57
2023-03-21T10:23:10.572Z,15.54
2023-03-21T10:23:20.715Z,15.51
2023-03-21T10:23:30.813Z,15.51
2023-03-21T10:23:40.970Z,15.52
2023-03-21T10:23:51.128Z,15.51
2023-03-21T10:24:01.283Z,15.54
2023-03-21T10:24:11.385Z,15.52
2023-03-21T10:24:21.537Z,15.52
2023-03-21T10:24:31.719Z,15.60
2023-03-21T10:24:41.777Z,15.66
2023-03-21T10:24:51.851Z,15.72
2023-03-21T10:25:02.073Z,15.81
2023-03-21T10:25:12.166Z,15.85
2023-03-21T10:25:22.264Z,15.85
2023-03-21T10:25:32.395Z,15.92
2023-03-21T10:25:42.539Z,15.86
2023-03-21T10:25:52.665Z,15.85
2023-03-21T10:26:02.858Z,15.82
2023-03-21T10:26:16.718Z,15.70
2023-03-21T10:26:23.142Z,15.63
2023-03-21T10:26:33.152Z,15.54
2023-03-21T10:26:43.268Z,15.42
2023-03-21T10:26:53.409Z,15.38
2023-03-21T10:27:03.515Z,15.38
2023-03-21T10:27:13.727Z,15.38
2023-03-21T10:27:23.786Z,15.35
2023-03-21T10:27:33.910Z,15.36
2023-03-21T10:27:44.170Z,15.39
2023-03-21T10:27:54.076Z,15.41
2023-03-21T10:28:04.384Z,15.39
2023-03-21T10:28:14.429Z,15.41
2023-03-21T10:28:24.575Z,15.41
2023-03-21T10:28:42.749Z,15.42
2023-03-21T10:28:53.614Z,15.48
2023-03-21T10:28:59.118Z,15.52
2023-03-21T10:29:09.381Z,15.64
2023-03-21T10:29:19.377Z,15.66
2023-03-21T10:29:29.557Z,15.75
2023-03-21T10:29:39.678Z,15.72
2023-03-21T10:29:49.928Z,15.67
2023-03-21T10:29:59.978Z,15.72
2023-03-21T10:30:10.086Z,15.78
2023-03-21T10:30:20.141Z,15.85
2023-03-21T10:30:30.355Z,15.99
2023-03-21T10:30:40.515Z,16.01
2023-03-21T10:30:50.641Z,16.03
2023-03-21T10:31:00.690Z,16.01
2023-03-21T10:31:10.878Z,16.03
2023-03-21T10:31:20.948Z,16.00
2023-03-21T10:31:31.113Z,15.94
2023-03-21T10:31:41.208Z,15.86
2023-03-21T10:31:51.557Z,15.88
2023-03-21T10:32:01.526Z,15.86
2023-03-21T10:32:11.853Z,15.84
2023-03-21T10:32:22.808Z,15.84
2023-03-21T10:32:31.855Z,15.82
2023-03-21T10:32:42.174Z,15.88
2023-03-21T10:32:52.231Z,15.86
2023-03-21T10:33:02.275Z,15.88
2023-03-21T10:33:12.318Z,15.85
2023-03-21T10:33:22.583Z,15.79
2023-03-21T10:33:32.556Z,15.79
2023-03-21T10:33:42.669Z,15.79
2023-03-21T10:33:52.865Z,15.76
2023-03-21T10:34:02.955Z,15.76
2023-03-21T10:34:13.101Z,15.74
2023-03-21T10:34:23.225Z,15.75
2023-03-21T10:34:33.313Z,15.72
2023-03-21T10:34:43.349Z,15.72
2023-03-21T10:34:53.478Z,15.70
2023-03-21T10:35:03.691Z,15.72
2023-03-21T10:35:13.770Z,15.72
2023-03-21T10:35:23.873Z,15.74
2023-03-21T10:35:34.042Z,15.70
2023-03-21T10:35:44.191Z,15.70
2023-03-21T10:35:54.204Z,15.75
2023-03-21T10:36:04.471Z,15.78
2023-03-21T10:36:14.531Z,15.81
2023-03-21T10:36:24.588Z,15.86
2023-03-21T10:36:34.722Z,15.93
2023-03-21T10:36:44.819Z,15.89
2023-03-21T10:36:54.926Z,15.96
2023-03-21T10:37:05.294Z,15.92
2023-03-21T10:37:15.276Z,15.93
